Time;durP1;ratioP1;P1;durP2;ratioP2;P2;SDS_P1;SDS_P2;PMS_P1;PMS_P2;Temp;Humidity;BMP_temperature;BMP_pressure;BME280_temperature;BME280_humidity;BME280_pressure;Samples;Min_cycle;Max_cycle;Signal;HPM_P1;HPM_P2
2023/12/25 00:00:24;;;;;;;10.95;2.15;;;;;;;;;;6269492;22;20032;-88
2023/12/25 00:03:16;;;;;;;6.78;1.90;;;;;;;;;;6303631;22;20034;-88
2023/12/25 00:09:53;;;;;;;;;;;;;;;;;;;;;
2023/12/25 00:13:33;;;;;;;11.02;2.58;;;;;;;;;;6180832;23;20062;-88
2023/12/25 00:16:19;;;;;;;6.53;2.00;;;;;;;;;;6316079;22;20118;-88
2023/12/25 00:22:40;;;;;;;5.68;1.92;;;;;;;;;;6153824;23;20057;-89
2023/12/25 00:25:41;;;;;;;5.18;2.38;;;;;;;;;;6133579;23;20020;-89
2023/12/25 00:32:24;;;;;;;12.43;2.50;;;;;;;;;;6154338;23;20020;-89
2023/12/25 00:35:33;;;;;;;10.57;3.53;;;;;;;;;;6133359;23;20017;-88
2023/12/25 00:38:17;;;;;;;10.02;2.67;;;;;;;;;;6253801;22;20334;-88
2023/12/25 00:41:10;;;;;;;10.20;2.67;;;;;;;;;;6254090;22;20042;-88
2023/12/25 00:43:55;;;;;;;7.30;2.85;;;;;;;;;;6254356;22;20077;-89
2023/12/25 00:50:19;;;;;;;7.35;3.28;;;;;;;;;;6319056;22;20064;-89
2023/12/25 00:53:36;;;;;;;11.55;3.05;;;;;;;;;;6339904;22;20094;-89
2023/12/25 00:57:02;;;;;;;9.45;3.17;;;;;;;;;;6280739;22;20041;-89
2023/12/25 00:59:49;;;;;;;13.63;3.30;;;;;;;;;;6341367;22;20456;-89
2023/12/25 01:02:43;;;;;;;;;;;;;;;;;;;;;
2023/12/25 01:05:35;;;;;;;8.43;2.92;;;;;;;;;;6341024;22;20583;-90
2023/12/25 01:08:19;;;;;;;6.20;3.00;;;;;;;;;;6317473;22;20022;-89
2023/12/25 01:11:07;;;;;;;13.27;3.47;;;;;;;;;;6317599;22;20022;-89
2023/12/25 01:13:51;;;;;;;6.63;3.60;;;;;;;;;;6340107;22;20068;-88
2023/12/25 01:16:53;;;;;;;18.02;8.77;;;;;;;;;;6270206;22;20354;-88
2023/12/25 01:20:17;;;;;;;11.52;5.03;;;;;;;;;;6271534;22;20066;-88
2023/12/25 01:30:30;;;;;;;15.73;8.00;;;;;;;;;;6182706;23;20016;-88
2023/12/25 01:33:57;;;;;;;17.63;9.18;;;;;;;;;;6269977;22;20505;-89
2023/12/25 01:36:41;;;;;;;14.23;8.63;;;;;;;;;;6269982;22;20069;-88
2023/12/25 01:40:05;;;;;;;;;;;;;;;;;;;;;
2023/12/25 01:43:06;;;;;;;14.20;8.13;;;;;;;;;;6182305;23;20024;-88
2023/12/25 01:46:00;;;;;;;15.70;8.85;;;;;;;;;;6270517;22;20069;-88
2023/12/25 01:48:46;;;;;;;15.98;8.25;;;;;;;;;;6270981;22;20082;-88
2023/12/25 01:51:34;;;;;;;17.15;5.97;;;;;;;;;;6265311;22;20023;-89
2023/12/25 01:54:24;;;;;;;14.52;6.22;;;;;;;;;;6269810;22;20019;-90
2023/12/25 02:00:50;;;;;;;11.73;4.13;;;;;;;;;;6182741;23;20016;-89
2023/12/25 02:03:37;;;;;;;12.75;4.07;;;;;;;;;;6270735;22;20471;-89
2023/12/25 02:06:22;;;;;;;7.93;3.20;;;;;;;;;;6181565;23;20452;-90
2023/12/25 02:09:16;;;;;;;8.65;3.72;;;;;;;;;;6271055;22;20024;-90
2023/12/25 02:12:25;;;;;;;14.88;3.30;;;;;;;;;;6270263;22;20024;-89
2023/12/25 02:15:20;;;;;;;14.48;4.13;;;;;;;;;;6293543;22;20026;-88
2023/12/25 02:21:20;;;;;;;13.70;3.83;;;;;;;;;;6339361;22;19912;-89
2023/12/25 02:24:12;;;;;;;7.35;3.20;;;;;;;;;;6316698;22;20018;-90
2023/12/25 02:27:21;;;;;;;10.02;3.90;;;;;;;;;;6317324;22;20397;-89
2023/12/25 02:30:08;;;;;;;15.90;3.95;;;;;;;;;;6340770;22;20029;-88
2023/12/25 02:33:06;;;;;;;;;;;;;;;;;;;;;
2023/12/25 02:36:24;;;;;;;13.38;3.35;;;;;;;;;;6338970;22;20026;-89
2023/12/25 02:42:43;;;;;;;;;;;;;;;;;;6340720;22;20539;-89
2023/12/25 02:45:56;;;;;;;;;;;;;;;;;;;;;
2023/12/25 02:48:52;;;;;;;6.78;3.10;;;;;;;;;;6339960;22;20095;-89
2023/12/25 02:51:56;;;;;;;6.80;2.70;;;;;;;;;;6315753;22;20360;-88
2023/12/25 02:54:41;;;;;;;6.15;2.83;;;;;;;;;;6339394;22;20018;-89
2023/12/25 02:57:53;;;;;;;9.05;2.70;;;;;;;;;;6339581;22;20018;-89
2023/12/25 03:03:54;;;;;;;9.52;2.70;;;;;;;;;;6339720;22;20476;-89
2023/12/25 03:06:38;;;;;;;11.20;2.80;;;;;;;;;;6315749;22;20018;-88
2023/12/25 03:09:22;;;;;;;7.90;3.05;;;;;;;;;;6316771;22;20391;-88
2023/12/25 03:12:06;;;;;;;14.32;3.25;;;;;;;;;;6316103;22;20064;-89
2023/12/25 03:14:50;;;;;;;5.20;2.58;;;;;;;;;;6314998;22;20018;-88
2023/12/25 03:17:34;;;;;;;6.43;3.65;;;;;;;;;;6316113;22;20033;-89
2023/12/25 03:20:22;;;;;;;9.52;2.90;;;;;;;;;;6316557;22;20068;-89
2023/12/25 03:23:34;;;;;;;7.47;2.70;;;;;;;;;;6316432;22;20475;-86
2023/12/25 03:26:19;;;;;;;5.10;2.50;;;;;;;;;;6316936;22;20018;-87
2023/12/25 03:29:05;;;;;;;8.27;2.85;;;;;;;;;;6315270;22;20021;-87
2023/12/25 03:31:49;;;;;;;3.75;2.30;;;;;;;;;;6315980;22;20569;-88
2023/12/25 03:34:44;;;;;;;6.38;3.67;;;;;;;;;;6315500;22;20467;-87
2023/12/25 03:37:29;;;;;;;6.88;3.33;;;;;;;;;;6316861;22;20032;-87
2023/12/25 03:40:14;;;;;;;9.10;3.53;;;;;;;;;;6317252;22;20498;-89
2023/12/25 03:43:23;;;;;;;7.22;3.33;;;;;;;;;;6316247;22;20071;-91
2023/12/25 03:49:22;;;;;;;6.82;3.05;;;;;;;;;;6340762;22;20017;-88
2023/12/25 03:52:09;;;;;;;5.25;2.78;;;;;;;;;;6322100;22;20025;-89
2023/12/25 03:54:56;;;;;;;8.85;3.65;;;;;;;;;;6321057;22;20053;-88
2023/12/25 03:57:42;;;;;;;6.18;2.60;;;;;;;;;;6320537;22;20048;-87
2023/12/25 04:00:27;;;;;;;5.13;3.00;;;;;;;;;;6320537;22;20064;-89
2023/12/25 04:03:21;;;;;;;;;;;;;;;;;;;;;
2023/12/25 04:06:05;;;;;;;10.55;3.78;;;;;;;;;;6343602;22;20087;-89
2023/12/25 04:08:49;;;;;;;11.00;3.53;;;;;;;;;;6320081;22;20466;-88
2023/12/25 04:11:33;;;;;;;10.88;4.55;;;;;;;;;;6320991;22;20018;-88
2023/12/25 04:14:19;;;;;;;11.23;3.85;;;;;;;;;;6320559;22;20056;-90
2023/12/25 04:17:07;;;;;;;7.20;3.08;;;;;;;;;;6320761;22;20022;-89
2023/12/25 04:19:51;;;;;;;7.93;3.22;;;;;;;;;;6321740;22;20061;-90
2023/12/25 04:22:37;;;;;;;7.60;3.10;;;;;;;;;;6320898;22;20371;-89
2023/12/25 04:25:21;;;;;;;13.65;3.17;;;;;;;;;;6320786;22;20049;-89
2023/12/25 04:28:06;;;;;;;10.05;3.60;;;;;;;;;;6320546;22;20021;-89
2023/12/25 04:30:52;;;;;;;11.07;3.58;;;;;;;;;;6321651;22;20080;-89
2023/12/25 04:34:11;;;;;;;10.50;3.85;;;;;;;;;;6321669;22;20383;-90
2023/12/25 04:37:14;;;;;;;8.68;3.13;;;;;;;;;;6321410;22;20013;-90
2023/12/25 04:40:00;;;;;;;;;;;;;;;;;;6322092;22;20021;-88
2023/12/25 04:42:55;;;;;;;;;;;;;;;;;;6322306;22;19913;-89
2023/12/25 04:45:39;;;;;;;5.53;3.33;;;;;;;;;;6322699;22;19909;-88
2023/12/25 04:48:23;;;;;;;9.57;4.07;;;;;;;;;;6322182;22;20013;-90
2023/12/25 04:51:07;;;;;;;11.38;4.55;;;;;;;;;;6322450;22;20014;-88
2023/12/25 04:54:20;;;;;;;11.35;4.22;;;;;;;;;;6322661;22;20057;-88
2023/12/25 04:57:07;;;;;;;9.15;3.45;;;;;;;;;;6323412;22;20464;-87
2023/12/25 04:59:52;;;;;;;8.93;3.55;;;;;;;;;;6321303;22;20072;-88
2023/12/25 05:02:41;;;;;;;10.13;3.17;;;;;;;;;;6344855;22;20021;-88
2023/12/25 05:05:38;;;;;;;11.15;3.15;;;;;;;;;;6321938;22;20018;-87
2023/12/25 05:08:22;;;;;;;12.20;4.18;;;;;;;;;;6322496;22;20072;-87
2023/12/25 05:11:09;;;;;;;9.18;3.17;;;;;;;;;;6322741;22;20021;-89
2023/12/25 05:13:53;;;;;;;10.82;3.10;;;;;;;;;;6321529;22;20021;-88
2023/12/25 05:16:39;;;;;;;9.63;3.42;;;;;;;;;;6322220;22;20086;-90
2023/12/25 05:19:23;;;;;;;9.10;3.53;;;;;;;;;;6321716;22;20455;-89
2023/12/25 05:22:08;;;;;;;9.80;2.80;;;;;;;;;;6320775;22;20022;-89
2023/12/25 05:24:52;;;;;;;11.18;3.38;;;;;;;;;;6321425;22;20064;-88
2023/12/25 05:27:36;;;;;;;10.82;3.35;;;;;;;;;;6321449;22;20071;-89
2023/12/25 05:30:20;;;;;;;5.68;2.78;;;;;;;;;;6321597;22;20045;-88
2023/12/25 05:33:04;;;;;;;8.50;3.92;;;;;;;;;;6320568;22;20021;-88
2023/12/25 05:35:48;;;;;;;15.60;5.57;;;;;;;;;;6322032;22;20090;-88
2023/12/25 05:38:32;;;;;;;15.18;4.60;;;;;;;;;;6321830;22;20037;-88
2023/12/25 05:41:19;;;;;;;13.85;3.75;;;;;;;;;;6321506;22;20071;-87
2023/12/25 05:44:03;;;;;;;16.63;4.15;;;;;;;;;;6321990;22;20071;-88
2023/12/25 05:46:47;;;;;;;6.82;3.40;;;;;;;;;;6321591;22;20402;-89
2023/12/25 05:49:31;;;;;;;11.85;3.90;;;;;;;;;;6321490;22;20063;-87
2023/12/25 05:52:15;;;;;;;13.38;4.20;;;;;;;;;;6321730;22;20018;-87
2023/12/25 05:55:00;;;;;;;11.27;4.10;;;;;;;;;;6321708;22;20014;-88
2023/12/25 05:57:44;;;;;;;8.77;3.72;;;;;;;;;;6321276;22;20501;-90
2023/12/25 06:00:29;;;;;;;5.85;3.30;;;;;;;;;;6345385;22;20018;-88
2023/12/25 06:03:13;;;;;;;11.45;3.80;;;;;;;;;;6321379;22;20018;-87
2023/12/25 06:06:03;;;;;;;12.25;4.38;;;;;;;;;;6321423;22;20348;-89
2023/12/25 06:12:27;;;;;;;12.25;5.00;;;;;;;;;;6344866;22;20041;-89
2023/12/25 06:15:10;;;;;;;16.50;4.97;;;;;;;;;;6321432;22;20321;-87
2023/12/25 06:17:54;;;;;;;14.18;5.38;;;;;;;;;;6321589;22;20018;-90
2023/12/25 06:20:38;;;;;;;8.68;5.53;;;;;;;;;;6321260;22;20018;-89
2023/12/25 06:23:22;;;;;;;8.32;5.05;;;;;;;;;;6321382;22;20022;-89
2023/12/25 06:26:06;;;;;;;18.67;6.45;;;;;;;;;;6322148;22;20017;-87
2023/12/25 06:28:50;;;;;;;10.95;5.65;;;;;;;;;;6321281;22;20022;-87
2023/12/25 06:31:34;;;;;;;11.65;5.45;;;;;;;;;;6322098;22;20068;-87
2023/12/25 06:34:18;;;;;;;9.30;4.07;;;;;;;;;;6321703;22;20022;-89
2023/12/25 06:37:08;;;;;;;8.60;4.43;;;;;;;;;;6321455;22;20435;-88
2023/12/25 06:39:58;;;;;;;11.25;5.18;;;;;;;;;;6321778;22;20063;-87
2023/12/25 06:42:42;;;;;;;11.68;4.75;;;;;;;;;;6322162;22;20067;-91
2023/12/25 06:49:25;;;;;;;12.03;6.77;;;;;;;;;;6345054;22;20057;-88
2023/12/25 06:56:10;;;;;;;4.63;3.67;;;;;;;;;;6343327;22;20014;-87
2023/12/25 06:59:03;;;;;;;11.23;4.93;;;;;;;;;;6320241;22;20037;-87
2023/12/25 07:01:48;;;;;;;14.10;4.38;;;;;;;;;;6320147;22;20021;-88
2023/12/25 07:04:33;;;;;;;12.95;4.50;;;;;;;;;;6320161;22;20301;-88
2023/12/25 07:07:19;;;;;;;8.38;5.28;;;;;;;;;;6320875;22;20095;-87
2023/12/25 07:10:07;;;;;;;11.30;4.68;;;;;;;;;;6321923;22;20017;-88
2023/12/25 07:13:33;;;;;;;20.05;6.28;;;;;;;;;;6321331;22;20044;-89
2023/12/25 07:16:54;;;;;;;10.02;4.20;;;;;;;;;;6344103;22;20099;-87
2023/12/25 07:19:38;;;;;;;10.93;3.95;;;;;;;;;;6318800;22;20017;-87
2023/12/25 07:22:44;;;;;;;10.70;4.28;;;;;;;;;;6319809;22;20044;-88
2023/12/25 07:29:38;;;;;;;7.65;3.45;;;;;;;;;;6341461;22;20017;-88
2023/12/25 07:32:22;;;;;;;12.75;3.85;;;;;;;;;;6340759;22;20064;-87
2023/12/25 07:35:07;;;;;;;15.52;4.35;;;;;;;;;;6317858;22;20053;-88
2023/12/25 07:37:54;;;;;;;13.32;4.32;;;;;;;;;;6339796;22;20093;-87
2023/12/25 07:40:38;;;;;;;19.17;4.68;;;;;;;;;;6340201;22;20014;-87
2023/12/25 07:43:32;;;;;;;20.90;5.40;;;;;;;;;;6317100;22;20017;-87
2023/12/25 07:46:16;;;;;;;18.40;4.82;;;;;;;;;;6319473;22;20045;-87
2023/12/25 07:49:00;;;;;;;15.25;5.60;;;;;;;;;;6319242;22;20072;-89
2023/12/25 07:51:44;;;;;;;12.90;6.05;;;;;;;;;;6318621;22;20050;-87
2023/12/25 07:54:27;;;;;;;16.80;6.10;;;;;;;;;;6318010;22;20064;-88
2023/12/25 07:57:11;;;;;;;15.45;4.50;;;;;;;;;;6317842;22;20018;-89
2023/12/25 07:59:55;;;;;;;14.90;4.70;;;;;;;;;;6317832;22;20018;-89
2023/12/25 08:02:39;;;;;;;11.43;4.82;;;;;;;;;;6316797;22;20049;-89
2023/12/25 08:05:23;;;;;;;15.68;4.15;;;;;;;;;;6317082;22;20021;-89
2023/12/25 08:08:07;;;;;;;12.50;3.90;;;;;;;;;;6340057;22;20061;-89
2023/12/25 08:14:26;;;;;;;15.30;4.20;;;;;;;;;;6340621;22;20033;-88
2023/12/25 08:20:50;;;;;;;12.25;3.20;;;;;;;;;;6187216;23;20490;-88
2023/12/25 08:23:34;;;;;;;10.98;3.28;;;;;;;;;;6275203;22;20020;-88
2023/12/25 08:26:24;;;;;;;15.07;2.65;;;;;;;;;;6278682;22;20020;-89
2023/12/25 08:29:28;;;;;;;15.85;4.65;;;;;;;;;;6276853;22;20020;-88
2023/12/25 08:32:12;;;;;;;;;;;;;;;;;;6277550;22;20073;-88
2023/12/25 08:42:08;;;;;;;15.02;3.25;;;;;;;;;;6221361;23;20047;-87
2023/12/25 08:44:55;;;;;;;20.80;5.80;;;;;;;;;;6221125;23;20019;-89
2023/12/25 08:47:42;;;;;;;13.32;3.65;;;;;;;;;;6209154;22;20096;-88
2023/12/25 08:50:27;;;;;;;12.90;5.05;;;;;;;;;;6275359;22;20019;-90
2023/12/25 08:57:24;;;;;;;16.65;3.45;;;;;;;;;;6187263;23;20019;-88
2023/12/25 09:03:20;;;;;;;14.55;3.53;;;;;;;;;;6186384;23;19954;-89
2023/12/25 09:06:15;;;;;;;;;;;;;;;;;;;;;
2023/12/25 09:09:28;;;;;;;11.63;3.60;;;;;;;;;;6187889;23;20023;-90
2023/12/25 09:26:26;;;;;;;12.15;3.47;;;;;;;;;;6211875;22;20110;-85
2023/12/25 09:29:12;;;;;;;16.00;3.55;;;;;;;;;;6317266;22;20502;-87
2023/12/25 09:31:56;;;;;;;15.23;3.58;;;;;;;;;;6316018;22;20017;-88
2023/12/25 09:34:43;;;;;;;12.82;3.15;;;;;;;;;;6340869;22;20072;-87
2023/12/25 09:37:40;;;;;;;11.00;3.38;;;;;;;;;;6322519;22;20021;-89
2023/12/25 09:40:27;;;;;;;16.15;3.58;;;;;;;;;;6300415;22;20018;-88
2023/12/25 09:54:19;;;;;;;16.48;5.28;;;;;;;;;;6345488;22;20019;-89
2023/12/25 09:57:04;;;;;;;12.13;3.58;;;;;;;;;;6322541;22;20014;-89
2023/12/25 10:07:06;;;;;;;12.65;3.47;;;;;;;;;;6345396;22;20068;-89
2023/12/25 10:10:16;;;;;;;11.57;2.92;;;;;;;;;;6321812;22;20021;-89
2023/12/25 10:13:11;;;;;;;14.43;3.20;;;;;;;;;;6322494;22;20018;-89
2023/12/25 10:15:57;;;;;;;12.57;2.75;;;;;;;;;;6322702;22;20060;-88
2023/12/25 10:18:44;;;;;;;7.57;3.35;;;;;;;;;;6322207;22;20017;-89
2023/12/25 10:21:40;;;;;;;8.60;3.28;;;;;;;;;;6322546;22;20539;-89
2023/12/25 10:24:27;;;;;;;8.07;3.65;;;;;;;;;;6322959;22;20045;-88
2023/12/25 10:27:24;;;;;;;;;;;;;;;;;;;;;
2023/12/25 10:30:37;;;;;;;11.68;3.70;;;;;;;;;;6346633;22;20026;-88
2023/12/25 10:33:30;;;;;;;13.15;4.43;;;;;;;;;;6323511;22;20091;-88
2023/12/25 10:36:14;;;;;;;9.20;2.90;;;;;;;;;;6323789;22;20079;-89
2023/12/25 10:46:09;;;;;;;11.02;3.00;;;;;;;;;;6347189;22;20053;-89
2023/12/25 10:48:54;;;;;;;12.35;2.90;;;;;;;;;;6322669;22;20393;-89
2023/12/25 10:51:47;;;;;;;11.75;3.13;;;;;;;;;;6323337;22;20472;-88
2023/12/25 10:54:39;;;;;;;14.13;3.55;;;;;;;;;;6323371;22;20041;-89
2023/12/25 10:57:23;;;;;;;14.65;3.20;;;;;;;;;;6322572;22;20018;-88
2023/12/25 11:00:15;;;;;;;11.95;3.55;;;;;;;;;;6322110;22;20036;-88
2023/12/25 11:03:01;;;;;;;12.82;3.30;;;;;;;;;;6321830;22;20080;-88
2023/12/25 11:06:01;;;;;;;14.52;3.38;;;;;;;;;;6322394;22;20344;-89
2023/12/25 11:09:05;;;;;;;11.02;2.85;;;;;;;;;;6322132;22;20401;-88
2023/12/25 11:19:36;;;;;;;6.95;2.60;;;;;;;;;;6339883;22;20076;-87
2023/12/25 11:22:28;;;;;;;8.85;3.13;;;;;;;;;;6340323;22;20098;-87
2023/12/25 11:25:14;;;;;;;17.13;3.30;;;;;;;;;;6338585;22;20068;-86
2023/12/25 11:28:05;;;;;;;17.00;3.60;;;;;;;;;;6317472;22;20041;-88
2023/12/25 11:31:44;;;;;;;;;;;;;;;;;;;;;
2023/12/25 11:34:56;;;;;;;14.85;2.90;;;;;;;;;;6246069;22;20025;-87
2023/12/25 11:41:00;;;;;;;12.48;3.47;;;;;;;;;;6337047;22;20017;-85
2023/12/25 11:44:03;;;;;;;13.43;3.30;;;;;;;;;;6313416;22;20107;-86
2023/12/25 11:50:19;;;;;;;13.63;3.65;;;;;;;;;;6211033;23;20051;-84
2023/12/25 11:53:36;;;;;;;;;;;;;;;;;;;;;
2023/12/25 11:56:23;;;;;;;14.07;3.58;;;;;;;;;;6212586;23;20143;-85
2023/12/25 11:59:25;;;;;;;17.42;3.55;;;;;;;;;;6191536;23;20486;-84
2023/12/25 12:02:33;;;;;;;8.93;3.33;;;;;;;;;;6191023;23;20044;-85
2023/12/25 12:26:58;;;;;;;12.75;3.13;;;;;;;;;;6181245;23;20457;-85
2023/12/25 12:41:08;;;;;;;8.98;3.70;;;;;;;;;;6155583;23;20071;-85
2023/12/25 12:44:06;;;;;;;14.85;3.35;;;;;;;;;;6131903;23;20387;-84
2023/12/25 12:46:53;;;;;;;12.60;3.72;;;;;;;;;;6244245;23;20394;-85
2023/12/25 12:49:44;;;;;;;9.35;2.85;;;;;;;;;;6243927;23;20363;-86
2023/12/25 12:52:36;;;;;;;12.50;2.70;;;;;;;;;;6243685;23;20018;-86
2023/12/25 12:56:04;;;;;;;12.63;2.90;;;;;;;;;;6244855;23;20016;-88
2023/12/25 12:58:52;;;;;;;12.15;2.38;;;;;;;;;;6225624;23;20019;-89
2023/12/25 13:04:56;;;;;;;11.02;3.05;;;;;;;;;;6154336;23;20390;-87
2023/12/25 13:11:09;;;;;;;19.52;5.35;;;;;;;;;;6152617;23;20012;-87
2023/12/25 13:13:55;;;;;;;14.27;3.85;;;;;;;;;;6149648;23;20021;-87
2023/12/25 13:16:40;;;;;;;16.48;3.33;;;;;;;;;;6237460;22;20020;-85
2023/12/25 13:30:13;;;;;;;;;;;;;;;;;;;;;
2023/12/25 13:40:06;;;;;;;16.60;4.85;;;;;;;;;;6245562;23;20082;-87
2023/12/25 13:42:50;;;;;;;10.98;3.83;;;;;;;;;;6259892;22;20017;-87
2023/12/25 13:45:36;;;;;;;16.00;3.38;;;;;;;;;;6315554;22;20018;-86
2023/12/25 13:48:36;;;;;;;19.13;4.32;;;;;;;;;;6316410;22;20026;-85
2023/12/25 13:51:21;;;;;;;11.25;3.42;;;;;;;;;;6316496;22;20049;-86
2023/12/25 13:54:16;;;;;;;18.17;3.45;;;;;;;;;;6337424;22;20045;-86
2023/12/25 14:34:03;;;;;;;16.90;2.72;;;;;;;;;;6191744;23;20024;-87
2023/12/25 14:37:15;;;;;;;17.00;4.22;;;;;;;;;;6240187;22;20021;-87
2023/12/25 14:47:47;;;;;;;24.02;3.15;;;;;;;;;;6155251;23;20008;-87
2023/12/25 14:54:03;;;;;;;14.57;2.78;;;;;;;;;;6153407;23;20478;-86
2023/12/25 14:56:50;;;;;;;12.63;3.20;;;;;;;;;;6241263;22;20075;-86
2023/12/25 14:59:35;;;;;;;17.75;3.28;;;;;;;;;;6239791;22;20085;-85
2023/12/25 15:02:54;;;;;;;17.23;3.33;;;;;;;;;;6240722;22;20335;-86
2023/12/25 15:20:33;;;;;;;19.85;3.50;;;;;;;;;;6155456;23;20092;-90
2023/12/25 16:21:02;;;;;;;8.65;3.95;;;;;;;;;;6213373;23;20070;-85
2023/12/25 16:23:46;;;;;;;11.13;4.18;;;;;;;;;;6233329;22;20017;-86
2023/12/25 16:26:31;;;;;;;12.82;4.97;;;;;;;;;;6318873;22;20030;-87
2023/12/25 16:29:19;;;;;;;11.57;3.85;;;;;;;;;;6317352;22;20367;-88
2023/12/25 16:32:09;;;;;;;11.05;3.70;;;;;;;;;;6316105;22;20017;-87
2023/12/25 16:34:53;;;;;;;6.95;3.42;;;;;;;;;;6317512;22;20128;-89
2023/12/25 16:37:38;;;;;;;8.45;3.40;;;;;;;;;;6270908;22;20340;-86
2023/12/25 16:40:22;;;;;;;6.40;3.47;;;;;;;;;;6184553;23;20081;-90
2023/12/25 16:43:06;;;;;;;13.18;3.90;;;;;;;;;;6274676;22;20542;-88
2023/12/25 16:45:52;;;;;;;12.10;3.03;;;;;;;;;;6275124;22;20469;-88
2023/12/25 16:48:41;;;;;;;9.70;3.15;;;;;;;;;;6274601;22;20028;-89
2023/12/25 16:58:27;;;;;;;14.95;3.72;;;;;;;;;;6185867;23;20461;-88
2023/12/25 17:01:26;;;;;;;14.80;3.58;;;;;;;;;;6273842;22;20019;-88
2023/12/25 17:04:11;;;;;;;11.15;2.90;;;;;;;;;;6253435;22;20024;-88
2023/12/25 17:07:01;;;;;;;6.05;2.50;;;;;;;;;;6274122;22;20401;-89
2023/12/25 17:10:06;;;;;;;8.40;2.75;;;;;;;;;;6274841;22;20020;-89
2023/12/25 17:19:39;;;;;;;6.22;2.42;;;;;;;;;;6183723;23;20066;-87
2023/12/25 17:25:59;;;;;;;;;;;;;;;;;;6188547;23;20016;-89
2023/12/25 17:29:17;;;;;;;42.63;20.90;;;;;;;;;;6273590;22;19911;-87
2023/12/25 17:36:10;;;;;;;10.68;5.72;;;;;;;;;;6187865;23;20022;-89
2023/12/25 17:43:02;;;;;;;11.23;6.68;;;;;;;;;;6156064;23;20066;-87
2023/12/25 17:49:24;;;;;;;74.15;40.83;;;;;;;;;;6158562;23;20016;-89
2023/12/25 17:52:47;;;;;;;;;;;;;;;;;;;;;
2023/12/25 17:59:22;;;;;;;70.97;35.50;;;;;;;;;;6158298;23;20012;-89
2023/12/25 18:09:29;;;;;;;20.75;13.07;;;;;;;;;;6155378;23;20036;-89
2023/12/25 18:12:14;;;;;;;11.20;7.15;;;;;;;;;;6241138;22;20039;-85
2023/12/25 18:22:07;;;;;;;6.87;3.47;;;;;;;;;;6153712;23;20331;-87
2023/12/25 18:24:51;;;;;;;11.63;3.47;;;;;;;;;;6241233;22;20066;-87
2023/12/25 18:27:50;;;;;;;8.55;4.05;;;;;;;;;;6153444;23;20395;-86
2023/12/25 18:30:34;;;;;;;9.85;3.97;;;;;;;;;;6240448;22;20064;-88
2023/12/25 18:33:36;;;;;;;14.30;3.70;;;;;;;;;;6239480;22;20056;-85
2023/12/25 18:36:23;;;;;;;10.30;3.38;;;;;;;;;;6242444;22;20016;-86
2023/12/25 18:39:07;;;;;;;12.70;3.67;;;;;;;;;;6241146;22;20100;-86
2023/12/25 18:41:51;;;;;;;7.78;3.20;;;;;;;;;;6241707;22;20044;-86
2023/12/25 18:48:08;;;;;;;5.53;2.92;;;;;;;;;;6153623;22;20516;-85
2023/12/25 18:51:23;;;;;;;5.43;3.17;;;;;;;;;;6152942;23;20025;-84
2023/12/25 18:54:09;;;;;;;7.25;2.70;;;;;;;;;;6152866;23;20051;-84
2023/12/25 18:57:05;;;;;;;4.40;2.88;;;;;;;;;;6240142;22;20509;-87
2023/12/25 18:59:49;;;;;;;10.07;2.15;;;;;;;;;;6153193;23;20020;-84
2023/12/25 19:02:36;;;;;;;7.70;2.17;;;;;;;;;;6239996;22;20118;-85
2023/12/25 19:05:39;;;;;;;6.13;1.95;;;;;;;;;;6239474;22;20020;-85
2023/12/25 19:19:21;;;;;;;15.13;7.53;;;;;;;;;;6184806;23;20052;-86
2023/12/25 19:22:11;;;;;;;16.95;5.60;;;;;;;;;;6166577;23;20056;-88
2023/12/25 19:39:46;;;;;;;12.65;6.30;;;;;;;;;;6189732;22;20040;-88
2023/12/25 19:42:42;;;;;;;7.35;3.30;;;;;;;;;;6246037;22;20078;-88
2023/12/25 19:45:29;;;;;;;8.77;2.88;;;;;;;;;;6241524;22;20036;-88
2023/12/25 19:48:39;;;;;;;9.88;6.00;;;;;;;;;;6244438;22;20344;-88
2023/12/25 19:51:24;;;;;;;7.93;4.90;;;;;;;;;;6202274;22;20021;-89
2023/12/25 19:54:12;;;;;;;13.52;4.15;;;;;;;;;;6241855;22;20475;-89
2023/12/25 19:57:00;;;;;;;7.07;2.97;;;;;;;;;;6241398;22;20020;-89
2023/12/25 19:59:46;;;;;;;13.52;7.78;;;;;;;;;;6240878;22;20020;-89
2023/12/25 20:02:38;;;;;;;24.02;14.75;;;;;;;;;;6242431;22;20027;-89
2023/12/25 20:16:41;;;;;;;8.52;2.90;;;;;;;;;;6168869;23;20067;-90
2023/12/25 20:23:29;;;;;;;8.45;2.30;;;;;;;;;;6157656;23;20142;-88
2023/12/25 20:26:36;;;;;;;;;;;;;;;;;;;;;
2023/12/25 20:29:59;;;;;;;;;;;;;;;;;;;;;
2023/12/25 21:06:19;;;;;;;;;;;;;;;;;;;;;
2023/12/25 21:27:31;;;;;;;6.05;2.08;;;;;;;;;;6316432;22;20400;-90
2023/12/25 21:30:26;;;;;;;8.45;2.40;;;;;;;;;;6316790;22;20419;-87
2023/12/25 21:37:06;;;;;;;9.50;2.60;;;;;;;;;;6344103;22;20086;-91
2023/12/25 21:50:38;;;;;;;14.35;3.47;;;;;;;;;;6304161;22;20061;-88
2023/12/25 22:11:26;;;;;;;10.13;3.13;;;;;;;;;;6346651;22;20009;-90
2023/12/25 22:14:18;;;;;;;12.27;3.20;;;;;;;;;;6323053;22;20050;-90
2023/12/25 22:21:08;;;;;;;11.27;3.10;;;;;;;;;;6345241;22;20005;-90
2023/12/25 22:23:53;;;;;;;10.45;3.42;;;;;;;;;;6321054;22;20018;-90
2023/12/25 22:30:14;;;;;;;11.25;3.30;;;;;;;;;;6344952;22;20061;-91
2023/12/25 22:57:57;;;;;;;9.25;3.08;;;;;;;;;;6155508;23;20025;-89
2023/12/25 23:00:41;;;;;;;10.73;3.10;;;;;;;;;;6243046;22;20066;-90
2023/12/25 23:03:25;;;;;;;10.90;3.40;;;;;;;;;;6242577;22;20024;-90
2023/12/25 23:06:09;;;;;;;18.67;3.45;;;;;;;;;;6242926;22;20074;-90
2023/12/25 23:08:53;;;;;;;10.40;3.25;;;;;;;;;;6242731;22;20055;-90
2023/12/25 23:11:37;;;;;;;12.68;3.60;;;;;;;;;;6242711;22;20052;-89
2023/12/25 23:14:21;;;;;;;8.90;3.13;;;;;;;;;;6154226;23;20075;-89
2023/12/25 23:17:06;;;;;;;4.90;3.33;;;;;;;;;;6154009;23;20071;-90
2023/12/25 23:19:50;;;;;;;7.95;3.00;;;;;;;;;;6242050;22;20021;-89
2023/12/25 23:22:34;;;;;;;14.23;4.30;;;;;;;;;;6242187;22;20043;-90
2023/12/25 23:25:17;;;;;;;17.40;3.97;;;;;;;;;;6241209;22;20074;-90
2023/12/25 23:28:02;;;;;;;17.83;4.20;;;;;;;;;;6241532;22;20016;-91
2023/12/25 23:30:46;;;;;;;9.88;3.47;;;;;;;;;;6240540;22;20017;-91
2023/12/25 23:33:30;;;;;;;15.88;3.85;;;;;;;;;;6241883;22;20501;-90
2023/12/25 23:36:14;;;;;;;14.57;3.13;;;;;;;;;;6241483;22;20383;-90
2023/12/25 23:38:58;;;;;;;9.85;3.95;;;;;;;;;;6241722;22;20039;-90
2023/12/25 23:41:42;;;;;;;9.98;3.10;;;;;;;;;;6243164;22;20024;-90
2023/12/25 23:44:27;;;;;;;10.75;3.55;;;;;;;;;;6243944;22;20336;-90
2023/12/25 23:47:13;;;;;;;9.25;3.67;;;;;;;;;;6244471;22;20016;-91
2023/12/25 23:49:58;;;;;;;12.75;3.45;;;;;;;;;;6240625;22;20150;-89
2023/12/25 23:52:45;;;;;;;15.35;3.63;;;;;;;;;;6152730;23;20066;-87
2023/12/25 23:55:44;;;;;;;7.75;3.33;;;;;;;;;;6262173;22;20017;-90
2023/12/25 23:58:33;;;;;;;12.65;3.70;;;;;;;;;;6340831;22;20471;-89
